Time;durP1;ratioP1;P1;durP2;ratioP2;P2;SDS_P1;SDS_P2;PMS_P1;PMS_P2;Temp;Humidity;BMP_temperature;BMP_pressure;BME280_temperature;BME280_humidity;BME280_pressure;Samples;Min_cycle;Max_cycle;Signal;HPM_P1;HPM_P2
2023/08/27 00:00:42;;;;;;;8.57;7.70;;;14.60;99.90;;;;;;5056939;28;1142036;-60
2023/08/27 00:03:08;;;;;;;9.07;7.70;;;14.60;99.90;;;;;;5095437;27;20035;-60
2023/08/27 00:05:33;;;;;;;8.70;7.90;;;14.60;99.90;;;;;;5096456;28;20044;-60
2023/08/27 00:07:59;;;;;;;8.90;8.00;;;14.60;99.90;;;;;;5075625;28;20798;-57
2023/08/27 00:10:25;;;;;;;8.50;7.70;;;14.60;99.90;;;;;;5082602;28;20154;-60
2023/08/27 00:12:50;;;;;;;8.85;7.57;;;14.60;99.90;;;;;;5095468;28;20067;-59
2023/08/27 00:15:16;;;;;;;9.02;7.80;;;14.50;99.90;;;;;;5095394;28;20097;-59
2023/08/27 00:17:43;;;;;;;9.23;8.32;;;14.50;99.90;;;;;;5098481;28;20035;-59
2023/08/27 00:20:10;;;;;;;8.93;7.97;;;14.50;99.90;;;;;;5096818;27;20406;-59
2023/08/27 00:22:39;;;;;;;11.65;8.43;;;14.50;99.90;;;;;;5096295;27;20043;-61
2023/08/27 00:25:05;;;;;;;10.73;8.18;;;14.50;99.90;;;;;;5096445;27;20040;-59
2023/08/27 00:27:33;;;;;;;9.52;7.95;;;14.40;99.90;;;;;;5097357;27;20028;-60
2023/08/27 00:30:00;;;;;;;9.30;8.18;;;14.40;99.90;;;;;;5098341;27;20036;-60
2023/08/27 00:32:28;;;;;;;8.68;7.85;;;14.40;99.90;;;;;;5096432;28;20035;-60
2023/08/27 00:34:54;;;;;;;9.27;7.63;;;14.40;99.90;;;;;;5096139;27;20185;-60
2023/08/27 00:37:21;;;;;;;9.25;8.30;;;14.40;99.90;;;;;;5096497;27;20051;-59
2023/08/27 00:39:47;;;;;;;8.43;7.63;;;14.40;99.90;;;;;;5094649;27;20051;-60
2023/08/27 00:42:12;;;;;;;8.98;8.07;;;14.40;99.90;;;;;;5096591;28;20036;-60
2023/08/27 00:44:38;;;;;;;9.57;7.72;;;14.40;99.90;;;;;;5097190;28;20036;-59
2023/08/27 00:47:05;;;;;;;10.18;8.25;;;14.30;99.90;;;;;;5096378;28;20043;-60
2023/08/27 00:49:31;;;;;;;10.48;8.30;;;14.40;99.90;;;;;;5093971;28;20139;-58
2023/08/27 00:51:57;;;;;;;9.38;8.40;;;14.40;99.90;;;;;;5064051;28;20042;-60
2023/08/27 00:54:24;;;;;;;9.68;8.65;;;14.30;99.90;;;;;;5091395;27;20043;-59
2023/08/27 00:56:50;;;;;;;9.82;8.50;;;14.30;99.90;;;;;;5095324;27;20079;-58
2023/08/27 00:59:16;;;;;;;11.77;8.27;;;14.30;99.90;;;;;;5093358;28;20155;-59
2023/08/27 01:01:43;;;;;;;11.27;8.68;;;14.30;99.90;;;;;;5096599;28;20486;-60
2023/08/27 01:04:09;;;;;;;9.57;8.60;;;14.30;99.90;;;;;;5091314;27;20461;-59
2023/08/27 01:06:35;;;;;;;9.52;8.50;;;14.20;99.90;;;;;;5079800;28;20089;-58
2023/08/27 01:09:20;;;;;;;9.07;8.18;;;14.30;99.90;;;;;;5093655;28;20039;-60
2023/08/27 01:12:08;;;;;;;12.18;8.57;;;14.30;99.90;;;;;;5092236;27;20043;-59
2023/08/27 01:14:36;;;;;;;10.05;9.00;;;14.20;99.90;;;;;;5092547;27;20080;-60
2023/08/27 01:17:07;;;;;;;11.73;8.50;;;14.30;99.90;;;;;;5078003;28;20049;-60
2023/08/27 01:19:34;;;;;;;9.80;8.20;;;14.20;99.90;;;;;;5094589;28;20047;-60
2023/08/27 01:22:00;;;;;;;8.98;7.88;;;14.30;99.90;;;;;;5074014;28;20044;-60
2023/08/27 01:24:25;;;;;;;9.13;8.20;;;14.30;99.90;;;;;;5095398;28;20034;-60
2023/08/27 01:26:57;;;;;;;9.05;7.95;;;14.20;99.90;;;;;;5095120;28;20122;-59
2023/08/27 01:29:41;;;;;;;8.68;7.75;;;14.20;99.90;;;;;;5097071;28;20039;-61
2023/08/27 01:32:19;;;;;;;12.07;8.20;;;14.30;99.90;;;;;;5093462;28;20036;-61
2023/08/27 01:34:46;;;;;;;10.98;7.53;;;14.30;99.90;;;;;;5095601;28;20666;-59
2023/08/27 01:37:15;;;;;;;8.80;7.90;;;14.30;99.90;;;;;;5093460;28;20406;-61
2023/08/27 01:39:44;;;;;;;9.25;8.05;;;14.30;99.90;;;;;;5092265;28;20047;-60
2023/08/27 01:42:11;;;;;;;9.32;7.70;;;14.30;99.90;;;;;;5092179;28;20046;-61
2023/08/27 01:44:37;;;;;;;10.55;8.10;;;14.30;99.90;;;;;;5092951;28;20039;-60
2023/08/27 01:47:03;;;;;;;8.55;7.65;;;14.30;99.90;;;;;;5079405;28;20035;-59
2023/08/27 01:49:30;;;;;;;8.32;6.85;;;14.30;99.90;;;;;;5079415;28;20044;-60
2023/08/27 01:51:55;;;;;;;8.52;7.72;;;14.30;99.90;;;;;;5083057;28;20098;-60
2023/08/27 01:54:21;;;;;;;7.95;7.15;;;14.30;99.90;;;;;;5093907;28;20104;-59
2023/08/27 01:56:47;;;;;;;8.20;7.40;;;14.20;99.90;;;;;;5095679;28;20035;-59
2023/08/27 01:59:12;;;;;;;9.23;7.72;;;14.20;99.90;;;;;;5088788;28;23616;-59
2023/08/27 02:01:38;;;;;;;8.13;7.18;;;14.30;99.90;;;;;;5096333;28;20052;-60
2023/08/27 02:04:04;;;;;;;7.93;7.22;;;14.20;99.90;;;;;;5081982;28;20047;-60
2023/08/27 02:06:30;;;;;;;7.85;7.05;;;14.20;99.90;;;;;;5095052;28;20039;-59
2023/08/27 02:08:56;;;;;;;8.50;7.18;;;14.10;99.90;;;;;;5078266;28;20394;-60
2023/08/27 02:11:21;;;;;;;9.73;7.22;;;14.10;99.90;;;;;;5093603;28;20446;-59
2023/08/27 02:13:47;;;;;;;10.82;7.20;;;14.10;99.90;;;;;;5094481;28;20044;-60
2023/08/27 02:16:13;;;;;;;9.75;7.22;;;14.10;99.90;;;;;;5069534;28;20044;-58
2023/08/27 02:18:39;;;;;;;7.93;7.22;;;14.10;99.90;;;;;;5090425;28;20050;-59
2023/08/27 02:21:04;;;;;;;9.40;6.80;;;14.10;99.90;;;;;;5088236;28;20558;-59
2023/08/27 02:23:30;;;;;;;7.90;7.10;;;14.10;99.90;;;;;;5091654;28;20048;-59
2023/08/27 02:25:56;;;;;;;8.90;7.47;;;14.10;99.90;;;;;;5089229;28;20039;-60
2023/08/27 02:28:21;;;;;;;7.95;7.13;;;14.10;99.90;;;;;;5089335;28;20047;-58
2023/08/27 02:30:55;;;;;;;7.75;6.95;;;14.00;99.90;;;;;;5089328;28;20043;-58
2023/08/27 02:33:21;;;;;;;10.82;7.30;;;14.00;99.90;;;;;;5090716;28;20046;-59
2023/08/27 02:35:47;;;;;;;8.40;7.13;;;14.00;99.90;;;;;;5072337;28;20043;-59
2023/08/27 02:38:13;;;;;;;8.18;7.30;;;14.00;99.90;;;;;;5090315;28;20048;-60
2023/08/27 02:40:39;;;;;;;7.97;7.18;;;14.00;99.90;;;;;;5090975;28;20390;-60
2023/08/27 02:43:05;;;;;;;9.55;6.90;;;13.90;99.90;;;;;;5075079;28;20036;-60
2023/08/27 02:45:31;;;;;;;8.13;7.00;;;13.90;99.90;;;;;;5088963;28;20028;-57
2023/08/27 02:47:57;;;;;;;11.77;7.20;;;13.90;99.90;;;;;;5090029;28;20043;-60
2023/08/27 02:50:22;;;;;;;7.85;6.75;;;13.90;99.90;;;;;;5093938;28;20036;-60
2023/08/27 02:52:48;;;;;;;7.97;7.18;;;13.90;99.90;;;;;;5090968;28;20505;-60
2023/08/27 02:55:14;;;;;;;9.57;7.65;;;13.90;99.90;;;;;;5095124;27;20042;-60
2023/08/27 02:57:40;;;;;;;8.23;7.07;;;13.90;99.90;;;;;;5093576;28;20136;-59
2023/08/27 03:00:06;;;;;;;10.75;7.20;;;13.90;99.90;;;;;;5076102;28;20051;-60
2023/08/27 03:02:32;;;;;;;8.25;7.00;;;13.90;99.90;;;;;;5075681;28;20096;-60
2023/08/27 03:05:04;;;;;;;10.48;7.63;;;13.90;99.90;;;;;;5077089;28;20043;-60
2023/08/27 03:07:30;;;;;;;11.30;8.13;;;13.80;99.90;;;;;;5078113;28;20044;-60
2023/08/27 03:09:56;;;;;;;10.50;8.00;;;13.80;99.90;;;;;;5093921;27;20039;-60
2023/08/27 03:12:22;;;;;;;10.48;7.78;;;13.90;99.90;;;;;;5094693;27;20053;-60
2023/08/27 03:14:47;;;;;;;8.85;7.50;;;13.80;99.90;;;;;;5093022;28;20043;-60
2023/08/27 03:17:13;;;;;;;12.75;7.75;;;13.80;99.90;;;;;;5099599;28;20036;-59
2023/08/27 03:19:39;;;;;;;9.52;8.13;;;13.90;99.90;;;;;;5095997;28;20171;-59
2023/08/27 03:22:05;;;;;;;12.68;8.45;;;13.80;99.90;;;;;;5089714;28;20461;-60
2023/08/27 03:24:31;;;;;;;13.10;7.95;;;13.80;99.90;;;;;;5096626;28;20147;-58
2023/08/27 03:26:56;;;;;;;8.70;7.80;;;13.80;99.90;;;;;;5095336;28;20040;-59
2023/08/27 03:29:22;;;;;;;10.20;8.35;;;13.80;99.90;;;;;;5094654;28;20032;-60
2023/08/27 03:31:48;;;;;;;9.20;8.20;;;13.80;99.90;;;;;;5094541;27;20071;-59
2023/08/27 03:34:14;;;;;;;10.30;7.82;;;13.80;99.90;;;;;;5095369;28;20378;-60
2023/08/27 03:36:40;;;;;;;11.00;8.00;;;13.80;99.90;;;;;;5094086;27;20193;-60
2023/08/27 03:39:07;;;;;;;10.98;8.27;;;13.80;99.90;;;;;;5094474;27;20047;-60
2023/08/27 03:41:33;;;;;;;10.13;8.45;;;13.90;99.90;;;;;;5093385;27;20142;-58
2023/08/27 03:43:58;;;;;;;12.23;8.35;;;13.90;99.90;;;;;;5094087;28;20482;-60
2023/08/27 03:46:24;;;;;;;9.70;7.80;;;13.90;99.90;;;;;;5095317;27;20031;-60
2023/08/27 03:48:50;;;;;;;9.30;8.40;;;13.90;99.90;;;;;;5096184;27;20043;-60
2023/08/27 03:51:15;;;;;;;10.70;8.45;;;13.90;99.90;;;;;;5082860;28;20031;-60
2023/08/27 03:53:41;;;;;;;9.10;8.07;;;13.90;99.90;;;;;;5096100;27;20043;-60
2023/08/27 03:56:07;;;;;;;10.00;8.32;;;13.90;99.90;;;;;;5093304;28;20047;-60
2023/08/27 03:58:33;;;;;;;9.48;8.40;;;13.90;99.90;;;;;;5094030;27;20050;-60
2023/08/27 04:00:59;;;;;;;10.07;8.75;;;13.90;99.90;;;;;;5092066;28;20044;-60
2023/08/27 04:03:25;;;;;;;10.15;8.73;;;14.00;99.90;;;;;;5094973;27;20071;-58
2023/08/27 04:05:50;;;;;;;11.07;8.85;;;14.00;99.90;;;;;;5094455;27;20066;-60
2023/08/27 04:08:19;;;;;;;9.48;8.45;;;14.00;99.90;;;;;;5094278;27;20075;-59
2023/08/27 04:10:52;;;;;;;9.63;8.63;;;14.00;99.90;;;;;;5094296;28;20096;-60
2023/08/27 04:13:18;;;;;;;10.65;9.07;;;14.00;99.90;;;;;;5094693;28;20136;-60
2023/08/27 04:15:47;;;;;;;9.38;8.30;;;14.00;99.90;;;;;;5095109;28;20074;-60
2023/08/27 04:18:13;;;;;;;13.23;8.82;;;14.00;99.90;;;;;;5094703;28;20055;-60
2023/08/27 04:20:39;;;;;;;10.98;8.18;;;14.00;99.90;;;;;;5093468;28;20032;-60
2023/08/27 04:23:05;;;;;;;9.27;8.30;;;14.00;99.90;;;;;;5095486;28;20031;-60
2023/08/27 04:25:31;;;;;;;10.68;8.38;;;14.00;99.90;;;;;;5094702;28;20040;-60
2023/08/27 04:27:57;;;;;;;11.05;9.05;;;14.00;99.90;;;;;;5094339;27;20497;-60
2023/08/27 04:30:23;;;;;;;10.50;8.32;;;14.00;99.90;;;;;;5096395;28;20040;-59
2023/08/27 04:32:49;;;;;;;12.95;9.32;;;14.00;99.90;;;;;;5093587;28;20032;-60
2023/08/27 04:35:15;;;;;;;11.77;9.18;;;14.00;99.90;;;;;;5074120;28;20027;-59
2023/08/27 04:37:41;;;;;;;10.90;8.20;;;14.00;99.90;;;;;;5094448;28;20562;-60
2023/08/27 04:40:07;;;;;;;9.43;8.45;;;14.00;99.90;;;;;;5062447;28;20088;-60
2023/08/27 04:42:32;;;;;;;10.55;8.30;;;14.00;99.90;;;;;;5079951;28;20105;-59
2023/08/27 04:44:58;;;;;;;14.23;8.60;;;14.00;99.90;;;;;;5096591;28;20397;-60
2023/08/27 04:47:24;;;;;;;8.93;8.02;;;14.00;99.90;;;;;;5097058;28;20059;-60
2023/08/27 04:49:50;;;;;;;9.73;8.70;;;13.90;99.90;;;;;;5094980;28;20469;-60
2023/08/27 04:52:15;;;;;;;13.10;8.50;;;13.90;99.90;;;;;;5093649;28;20477;-60
2023/08/27 04:54:41;;;;;;;10.82;8.60;;;13.90;99.90;;;;;;5078858;28;20032;-60
2023/08/27 04:57:07;;;;;;;10.73;7.88;;;13.90;99.90;;;;;;5093818;27;20046;-59
2023/08/27 04:59:32;;;;;;;10.80;8.57;;;13.80;99.90;;;;;;5096063;28;20051;-60
2023/08/27 05:02:01;;;;;;;10.18;8.15;;;13.80;99.90;;;;;;5092751;27;21455;-58
2023/08/27 05:04:30;;;;;;;10.70;8.65;;;13.80;99.90;;;;;;5095508;27;20039;-60
2023/08/27 05:06:56;;;;;;;10.43;8.10;;;13.80;99.90;;;;;;5095639;28;20162;-60
2023/08/27 05:09:22;;;;;;;9.13;8.23;;;13.80;99.90;;;;;;5096738;27;20103;-60
2023/08/27 05:11:48;;;;;;;12.95;8.73;;;13.80;99.90;;;;;;5093438;27;20105;-60
2023/08/27 05:14:14;;;;;;;13.88;8.40;;;13.80;99.90;;;;;;5092693;27;20047;-60
2023/08/27 05:16:39;;;;;;;8.65;7.85;;;13.80;99.90;;;;;;5081091;27;20043;-60
2023/08/27 05:19:05;;;;;;;9.98;8.25;;;13.80;99.90;;;;;;5081735;28;20047;-60
2023/08/27 05:21:31;;;;;;;9.93;8.00;;;13.70;99.90;;;;;;5093633;27;20236;-59
2023/08/27 05:23:56;;;;;;;10.10;8.18;;;13.70;99.90;;;;;;5092135;28;20035;-60
2023/08/27 05:26:22;;;;;;;9.52;7.90;;;13.80;99.90;;;;;;5093992;28;20119;-60
2023/08/27 05:28:48;;;;;;;11.30;8.45;;;13.80;99.90;;;;;;5092272;28;20524;-60
2023/08/27 05:31:13;;;;;;;11.15;8.10;;;13.80;99.90;;;;;;5090220;28;20062;-59
2023/08/27 05:33:39;;;;;;;10.27;8.20;;;13.80;99.90;;;;;;5096207;28;20105;-60
2023/08/27 05:36:05;;;;;;;10.82;8.40;;;13.80;99.90;;;;;;5092726;28;20452;-60
2023/08/27 05:38:31;;;;;;;10.10;7.88;;;13.80;99.90;;;;;;5093400;28;20177;-60
2023/08/27 05:40:56;;;;;;;8.60;7.45;;;13.90;99.90;;;;;;5092694;28;20044;-59
2023/08/27 05:43:23;;;;;;;11.05;8.10;;;13.90;99.90;;;;;;5096070;28;20027;-60
2023/08/27 05:45:49;;;;;;;10.82;7.63;;;14.00;99.90;;;;;;5095762;28;20047;-59
2023/08/27 05:48:15;;;;;;;9.68;7.80;;;14.00;99.90;;;;;;5075611;28;20447;-60
2023/08/27 05:50:41;;;;;;;10.05;7.97;;;14.10;99.90;;;;;;5090239;28;20036;-58
2023/08/27 05:53:06;;;;;;;8.70;7.80;;;14.20;99.90;;;;;;5093605;28;20046;-60
2023/08/27 05:55:33;;;;;;;9.02;7.72;;;14.20;99.90;;;;;;5055677;28;20043;-60
2023/08/27 05:57:59;;;;;;;14.30;7.55;;;14.30;99.90;;;;;;5098487;28;20099;-58
2023/08/27 06:00:25;;;;;;;8.35;6.95;;;14.30;99.90;;;;;;5098022;28;20043;-60
2023/08/27 06:02:51;;;;;;;9.70;7.53;;;14.30;99.90;;;;;;5094631;28;20055;-60
2023/08/27 06:05:16;;;;;;;11.20;7.40;;;14.30;99.90;;;;;;5060899;28;20066;-60
2023/08/27 06:07:42;;;;;;;9.57;7.68;;;14.40;99.90;;;;;;5075324;28;20047;-59
2023/08/27 06:10:08;;;;;;;9.27;7.60;;;14.40;99.90;;;;;;5094566;28;20623;-58
2023/08/27 06:12:34;;;;;;;8.20;7.40;;;14.40;99.90;;;;;;5095412;28;20044;-59
2023/08/27 06:14:59;;;;;;;9.25;8.25;;;14.40;99.90;;;;;;5094732;28;20575;-61
2023/08/27 06:17:25;;;;;;;8.65;7.35;;;14.40;99.90;;;;;;5075607;28;20044;-61
2023/08/27 06:19:51;;;;;;;10.35;8.10;;;14.50;99.90;;;;;;5090049;28;20035;-59
2023/08/27 06:22:16;;;;;;;9.98;7.63;;;14.40;99.90;;;;;;5092107;28;20162;-61
2023/08/27 06:24:42;;;;;;;9.27;7.70;;;14.40;99.90;;;;;;5095294;28;20067;-60
2023/08/27 06:27:08;;;;;;;10.15;7.95;;;14.40;99.90;;;;;;5093570;28;20474;-60
2023/08/27 06:29:34;;;;;;;9.57;7.68;;;14.50;99.90;;;;;;5096378;28;20829;-60
2023/08/27 06:31:59;;;;;;;11.93;7.72;;;14.50;99.90;;;;;;5095083;28;20043;-61
2023/08/27 06:34:25;;;;;;;8.35;7.20;;;14.50;99.90;;;;;;5099523;28;20032;-60
2023/08/27 06:36:51;;;;;;;8.93;7.38;;;14.50;99.90;;;;;;5078873;28;20032;-60
2023/08/27 06:39:16;;;;;;;8.13;7.20;;;14.50;99.90;;;;;;5082346;28;20047;-60
2023/08/27 06:41:42;;;;;;;8.10;7.25;;;14.60;99.90;;;;;;5095819;27;20432;-60
2023/08/27 06:44:08;;;;;;;8.55;7.05;;;14.60;99.90;;;;;;5095312;28;20032;-60
2023/08/27 06:46:33;;;;;;;10.68;7.68;;;14.60;99.90;;;;;;5094908;28;20050;-59
2023/08/27 06:48:59;;;;;;;9.27;6.95;;;14.60;99.90;;;;;;5098438;28;20051;-61
2023/08/27 06:51:26;;;;;;;8.32;7.30;;;14.60;99.90;;;;;;5079444;28;20414;-57
2023/08/27 06:53:51;;;;;;;11.43;7.40;;;14.60;99.90;;;;;;5063547;28;20048;-60
2023/08/27 06:56:18;;;;;;;10.27;7.65;;;14.60;99.90;;;;;;5096387;28;20813;-58
2023/08/27 06:58:43;;;;;;;9.32;7.35;;;14.60;99.90;;;;;;5095678;27;20090;-60
2023/08/27 07:01:09;;;;;;;7.10;6.40;;;14.70;99.90;;;;;;5094477;27;20130;-59
2023/08/27 07:03:36;;;;;;;11.43;7.25;;;14.70;99.90;;;;;;5097015;27;20040;-59
2023/08/27 07:06:05;;;;;;;14.32;7.30;;;14.70;99.90;;;;;;5028998;27;20044;-60
2023/08/27 07:08:31;;;;;;;11.02;6.82;;;14.70;99.90;;;;;;5088512;28;20100;-59
2023/08/27 07:10:57;;;;;;;9.15;6.63;;;14.70;99.90;;;;;;5090285;28;20032;-60
2023/08/27 07:13:22;;;;;;;9.48;6.90;;;14.80;99.90;;;;;;5073383;28;20058;-60
2023/08/27 07:15:48;;;;;;;10.40;6.75;;;14.80;99.90;;;;;;5072079;28;20482;-60
2023/08/27 07:18:15;;;;;;;8.80;6.00;;;14.80;99.90;;;;;;5093709;28;20126;-61
2023/08/27 07:20:41;;;;;;;10.23;6.47;;;14.80;99.90;;;;;;5074776;28;20054;-60
2023/08/27 07:23:07;;;;;;;9.07;5.82;;;14.90;99.90;;;;;;5092684;28;21282;-59
2023/08/27 07:25:34;;;;;;;11.68;5.50;;;14.90;99.90;;;;;;5093565;27;20046;-58
2023/08/27 07:27:59;;;;;;;5.75;4.82;;;14.90;99.90;;;;;;5095251;28;20039;-60
2023/08/27 07:30:25;;;;;;;6.43;4.57;;;14.90;99.90;;;;;;5085651;28;20036;-60
2023/08/27 07:32:51;;;;;;;5.70;4.13;;;14.90;99.90;;;;;;5088909;28;20039;-60
2023/08/27 07:35:17;;;;;;;5.97;4.40;;;15.00;99.90;;;;;;5093902;28;20040;-60
2023/08/27 07:37:43;;;;;;;5.18;3.75;;;15.00;99.90;;;;;;5097325;28;20042;-58
2023/08/27 07:40:09;;;;;;;6.07;3.90;;;15.10;99.90;;;;;;5075582;28;20044;-60
2023/08/27 07:42:35;;;;;;;4.32;3.60;;;15.20;99.90;;;;;;5092336;27;20060;-61
2023/08/27 07:45:02;;;;;;;6.53;3.60;;;15.30;99.90;;;;;;5091348;27;20036;-61
2023/08/27 07:47:27;;;;;;;4.53;3.28;;;15.30;99.90;;;;;;5090282;27;20051;-61
2023/08/27 07:49:53;;;;;;;4.53;3.42;;;15.40;99.90;;;;;;5072085;28;20673;-61
2023/08/27 07:52:19;;;;;;;4.68;2.90;;;15.40;99.90;;;;;;5092290;28;20044;-59
2023/08/27 07:54:44;;;;;;;5.50;3.40;;;15.30;99.90;;;;;;5093812;28;20050;-60
2023/08/27 07:57:10;;;;;;;5.85;3.92;;;15.30;99.90;;;;;;5094030;27;20517;-61
2023/08/27 07:59:36;;;;;;;6.35;4.05;;;15.30;99.90;;;;;;5075198;28;20414;-61
2023/08/27 08:02:02;;;;;;;5.88;3.72;;;15.30;99.90;;;;;;5095268;27;20035;-61
2023/08/27 08:04:27;;;;;;;6.50;3.70;;;15.40;99.90;;;;;;5090134;28;20071;-60
2023/08/27 08:06:53;;;;;;;7.95;4.03;;;15.30;99.90;;;;;;5093001;28;20092;-60
2023/08/27 08:09:19;;;;;;;8.50;4.40;;;15.40;99.90;;;;;;5072473;27;20040;-60
2023/08/27 08:11:44;;;;;;;8.65;4.57;;;15.40;99.90;;;;;;5085906;27;20043;-60
2023/08/27 08:14:10;;;;;;;5.93;4.03;;;15.60;99.90;;;;;;5089497;28;20070;-59
2023/08/27 08:16:36;;;;;;;6.95;4.30;;;15.70;99.90;;;;;;5090719;28;20046;-60
2023/08/27 08:19:02;;;;;;;8.10;4.30;;;15.80;99.90;;;;;;5090429;28;20647;-60
2023/08/27 08:21:27;;;;;;;5.18;4.07;;;16.00;99.90;;;;;;5089514;28;20043;-60
2023/08/27 08:23:53;;;;;;;8.88;4.47;;;16.00;99.90;;;;;;5089101;28;20044;-61
2023/08/27 08:26:19;;;;;;;7.50;4.22;;;16.00;99.90;;;;;;5090446;27;20371;-60
2023/08/27 08:28:45;;;;;;;8.68;3.88;;;16.00;99.90;;;;;;5088600;27;20052;-60
2023/08/27 08:31:10;;;;;;;6.13;4.03;;;16.00;99.90;;;;;;5091853;28;20070;-60
2023/08/27 08:33:36;;;;;;;4.90;3.38;;;16.10;99.90;;;;;;5092132;28;20106;-60
2023/08/27 08:36:02;;;;;;;5.32;3.50;;;16.10;99.90;;;;;;5090358;28;20051;-57
2023/08/27 08:38:28;;;;;;;6.65;3.30;;;16.30;99.90;;;;;;5090413;28;20097;-60
2023/08/27 08:40:59;;;;;;;5.53;3.15;;;16.50;99.90;;;;;;5086610;27;20045;-59
2023/08/27 08:43:43;;;;;;;4.47;3.15;;;16.70;99.90;;;;;;5087106;27;20502;-60
2023/08/27 08:46:13;;;;;;;5.68;3.10;;;16.90;99.90;;;;;;5090925;28;20047;-60
2023/08/27 08:48:41;;;;;;;4.15;2.70;;;17.10;99.90;;;;;;5089761;28;20050;-61
2023/08/27 08:51:12;;;;;;;4.35;2.60;;;17.30;99.90;;;;;;5072512;28;20059;-59
2023/08/27 08:53:50;;;;;;;3.88;2.80;;;17.30;99.90;;;;;;5096130;28;20048;-61
2023/08/27 08:56:22;;;;;;;7.03;2.90;;;17.30;99.90;;;;;;5091629;28;20102;-60
2023/08/27 08:58:54;;;;;;;3.63;2.50;;;17.30;99.90;;;;;;5093268;28;20043;-59
2023/08/27 09:01:21;;;;;;;4.50;2.87;;;17.40;99.90;;;;;;5071437;28;20093;-61
2023/08/27 09:03:48;;;;;;;3.30;2.38;;;17.50;99.90;;;;;;5093946;28;20297;-61
2023/08/27 09:06:20;;;;;;;4.53;2.70;;;17.60;99.90;;;;;;5085379;27;20073;-60
2023/08/27 09:08:47;;;;;;;5.55;2.40;;;17.70;99.90;;;;;;5061330;28;20054;-58
2023/08/27 09:11:14;;;;;;;4.88;2.38;;;17.80;99.90;;;;;;5088176;28;20124;-60
2023/08/27 09:13:39;;;;;;;4.32;2.38;;;17.80;99.90;;;;;;5088266;28;20043;-60
2023/08/27 09:16:06;;;;;;;3.55;2.30;;;17.90;99.90;;;;;;5089758;28;20035;-61
2023/08/27 09:18:34;;;;;;;3.97;2.20;;;17.90;99.90;;;;;;5079797;28;20082;-60
2023/08/27 09:21:00;;;;;;;2.60;1.90;;;18.00;99.90;;;;;;5072571;28;20040;-60
2023/08/27 09:23:27;;;;;;;5.03;2.35;;;18.10;99.90;;;;;;5087141;28;20039;-60
2023/08/27 09:25:56;;;;;;;2.35;2.00;;;18.10;99.90;;;;;;5087473;28;20040;-59
2023/08/27 09:28:22;;;;;;;4.13;2.20;;;18.10;99.90;;;;;;5089988;27;20039;-59
2023/08/27 09:30:48;;;;;;;2.72;2.25;;;18.10;99.90;;;;;;5089499;28;20084;-60
2023/08/27 09:33:13;;;;;;;5.75;2.10;;;18.30;99.90;;;;;;5083369;28;20046;-60
2023/08/27 09:35:41;;;;;;;4.05;2.08;;;18.50;99.90;;;;;;5082274;28;20135;-61
2023/08/27 09:38:11;;;;;;;2.42;1.90;;;18.60;99.90;;;;;;5085114;28;20051;-61
2023/08/27 09:40:37;;;;;;;4.43;2.08;;;18.60;99.90;;;;;;5086040;28;20062;-59
2023/08/27 09:43:06;;;;;;;2.10;1.90;;;18.60;99.90;;;;;;5069690;28;20397;-61
2023/08/27 09:45:36;;;;;;;2.78;2.22;;;18.80;99.90;;;;;;5084980;27;20518;-60
2023/08/27 09:48:03;;;;;;;2.50;1.90;;;18.80;99.90;;;;;;5084961;28;20860;-60
2023/08/27 09:50:30;;;;;;;2.08;1.67;;;18.80;99.90;;;;;;5091663;27;20044;-61
2023/08/27 09:53:12;;;;;;;2.92;1.88;;;18.90;99.90;;;;;;5093095;28;20052;-59
2023/08/27 09:55:39;;;;;;;4.57;2.10;;;19.10;99.90;;;;;;5090164;28;20054;-59
2023/08/27 09:58:05;;;;;;;1.70;1.60;;;19.30;99.90;;;;;;5077371;28;20043;-61
2023/08/27 10:00:34;;;;;;;4.03;2.13;;;19.50;99.90;;;;;;5086325;28;20070;-60
2023/08/27 10:03:00;;;;;;;4.65;2.20;;;19.60;99.90;;;;;;5094528;28;20052;-61
2023/08/27 10:05:34;;;;;;;3.45;1.98;;;19.70;99.90;;;;;;5074031;28;20050;-61
2023/08/27 10:08:04;;;;;;;3.50;1.85;;;19.50;99.90;;;;;;5093699;28;20124;-61
2023/08/27 10:10:33;;;;;;;3.88;1.90;;;19.40;99.90;;;;;;5094453;28;20036;-61
2023/08/27 10:13:00;;;;;;;2.92;2.03;;;19.30;99.90;;;;;;5088123;28;20521;-60
2023/08/27 10:15:27;;;;;;;2.92;1.90;;;19.20;99.90;;;;;;5091555;28;20040;-61
2023/08/27 10:17:53;;;;;;;2.85;1.90;;;19.00;99.90;;;;;;5063830;28;20038;-61
2023/08/27 10:20:20;;;;;;;4.25;1.80;;;19.00;99.90;;;;;;5060476;28;20032;-61
2023/08/27 10:22:47;;;;;;;3.53;2.22;;;19.00;99.90;;;;;;5092722;28;20036;-60
2023/08/27 10:25:17;;;;;;;3.90;1.85;;;19.10;99.90;;;;;;5074920;28;20104;-60
2023/08/27 10:27:48;;;;;;;2.70;1.60;;;19.20;99.90;;;;;;5081950;28;20032;-62
2023/08/27 10:30:16;;;;;;;2.25;1.58;;;19.30;99.90;;;;;;5092639;28;21007;-61
2023/08/27 10:32:42;;;;;;;5.38;2.17;;;19.60;99.90;;;;;;5093774;28;20067;-60
2023/08/27 10:35:09;;;;;;;5.70;2.05;;;19.90;99.90;;;;;;5093115;28;20566;-60
2023/08/27 10:37:41;;;;;;;2.72;1.63;;;20.20;99.90;;;;;;5079723;28;20044;-61
2023/08/27 10:40:09;;;;;;;3.90;1.70;;;20.50;99.90;;;;;;5090865;28;20105;-62
2023/08/27 10:42:39;;;;;;;3.05;1.70;;;20.80;99.90;;;;;;5088432;28;20047;-58
2023/08/27 10:45:15;;;;;;;3.22;1.70;;;20.80;99.90;;;;;;5074263;28;20093;-61
2023/08/27 10:48:21;;;;;;;2.53;1.50;;;20.60;99.90;;;;;;5089963;28;20040;-61
2023/08/27 10:50:54;;;;;;;2.80;1.50;;;20.50;99.90;;;;;;5092008;28;20479;-60
2023/08/27 10:53:21;;;;;;;3.05;1.70;;;20.40;99.90;;;;;;5091066;28;20060;-58
2023/08/27 10:55:52;;;;;;;4.07;1.50;;;20.30;99.90;;;;;;5094103;28;20051;-61
2023/08/27 10:58:25;;;;;;;4.45;1.80;;;20.20;99.90;;;;;;5093071;28;20039;-60
2023/08/27 11:01:07;;;;;;;2.53;1.40;;;20.20;99.90;;;;;;5051344;28;20507;-61
2023/08/27 11:04:01;;;;;;;2.35;1.83;;;20.20;99.90;;;;;;5069352;28;20115;-62
2023/08/27 11:06:45;;;;;;;2.65;1.83;;;20.10;99.90;;;;;;5073432;28;20036;-59
2023/08/27 11:09:14;;;;;;;2.22;1.80;;;20.10;99.90;;;;;;5067738;28;20051;-60
2023/08/27 11:11:59;;;;;;;3.67;1.90;;;20.00;99.90;;;;;;5066558;28;20086;-61
2023/08/27 11:14:25;;;;;;;2.22;2.00;;;19.90;99.90;;;;;;5074392;28;20057;-59
2023/08/27 11:17:03;;;;;;;3.55;1.90;;;19.80;99.90;;;;;;5076840;28;20062;-58
2023/08/27 11:19:37;;;;;;;3.35;2.00;;;19.70;99.90;;;;;;5063563;28;20477;-61
2023/08/27 11:22:14;;;;;;;2.53;1.88;;;19.80;99.90;;;;;;5075571;28;20040;-61
2023/08/27 11:24:45;;;;;;;2.92;1.77;;;20.10;99.90;;;;;;5072435;28;20513;-60
2023/08/27 11:27:12;;;;;;;2.70;2.13;;;20.50;99.90;;;;;;5077269;28;20032;-61
2023/08/27 11:29:40;;;;;;;2.83;2.00;;;20.90;99.90;;;;;;5073704;28;20550;-60
2023/08/27 11:32:10;;;;;;;4.55;2.03;;;21.30;99.90;;;;;;5074652;28;20040;-60
2023/08/27 11:34:38;;;;;;;3.95;2.17;;;21.60;99.90;;;;;;5082797;28;20624;-60
2023/08/27 11:37:04;;;;;;;3.30;1.90;;;21.90;99.90;;;;;;5080392;28;20104;-61
2023/08/27 11:39:30;;;;;;;2.30;1.90;;;22.10;99.90;;;;;;5081421;28;20058;-61
2023/08/27 11:41:56;;;;;;;3.83;1.98;;;22.40;99.50;;;;;;5080472;28;20398;-61
2023/08/27 11:44:22;;;;;;;1.70;1.10;;;22.60;99.00;;;;;;5052623;28;20040;-59
2023/08/27 11:46:48;;;;;;;6.60;1.38;;;22.60;98.70;;;;;;5079706;28;20104;-62
2023/08/27 11:49:14;;;;;;;2.80;1.30;;;22.30;98.30;;;;;;5079287;28;20058;-61
2023/08/27 11:51:41;;;;;;;3.25;1.10;;;22.00;98.60;;;;;;5075442;28;20508;-58
2023/08/27 11:54:08;;;;;;;2.92;1.70;;;21.60;98.90;;;;;;5076200;28;20055;-61
2023/08/27 11:56:39;;;;;;;5.88;1.40;;;21.30;99.10;;;;;;5073250;28;20066;-62
2023/08/27 11:59:06;;;;;;;1.90;1.05;;;21.00;99.40;;;;;;5081089;28;20167;-61
2023/08/27 12:01:33;;;;;;;1.80;0.98;;;20.80;99.70;;;;;;5100148;28;20050;-62
2023/08/27 12:03:59;;;;;;;3.03;1.10;;;20.60;99.20;;;;;;5101800;28;20074;-62
2023/08/27 12:06:28;;;;;;;0.95;0.77;;;20.20;99.00;;;;;;5092664;28;20474;-59
2023/08/27 12:08:54;;;;;;;1.85;0.88;;;19.90;98.80;;;;;;5099500;28;20043;-62
2023/08/27 12:11:27;;;;;;;3.70;0.98;;;19.60;99.50;;;;;;5097718;28;20456;-60
2023/08/27 12:14:00;;;;;;;2.13;1.00;;;19.30;99.90;;;;;;5100560;28;20039;-61
2023/08/27 12:16:29;;;;;;;1.83;1.08;;;19.10;99.90;;;;;;5083968;28;20032;-61
2023/08/27 12:19:03;;;;;;;1.13;0.80;;;18.90;99.90;;;;;;5098460;27;20031;-60
2023/08/27 12:21:33;;;;;;;7.68;1.33;;;18.70;99.90;;;;;;5098010;28;20047;-61
2023/08/27 12:24:00;;;;;;;3.20;0.60;;;18.50;99.90;;;;;;5098715;28;20044;-61
2023/08/27 12:26:26;;;;;;;3.10;0.70;;;18.30;99.90;;;;;;5098125;28;20046;-59
2023/08/27 12:28:52;;;;;;;1.95;0.85;;;18.10;99.90;;;;;;5101790;28;20442;-60
2023/08/27 12:31:25;;;;;;;3.00;0.80;;;17.90;99.90;;;;;;5099220;28;20466;-60
2023/08/27 12:33:57;;;;;;;1.73;0.77;;;17.80;99.90;;;;;;5080238;28;20035;-61
2023/08/27 12:36:25;;;;;;;2.15;0.80;;;17.60;99.90;;;;;;5097664;28;20040;-60
2023/08/27 12:38:51;;;;;;;1.75;0.90;;;17.50;99.90;;;;;;5080136;28;20054;-60
2023/08/27 12:41:17;;;;;;;1.17;0.70;;;17.40;99.90;;;;;;5098896;28;20051;-61
2023/08/27 12:43:43;;;;;;;2.75;0.93;;;17.40;99.90;;;;;;5090220;28;20242;-60